CheckWX is a tool to help pilots better visualize weather data.  It is not intended as a substitute for an official pre-flight weather briefing.

22:02:05 UTC

KFXE TAF
Fort Lauderdale Executive Airport
Fort Lauderdale, Florida, USA
KFXE 051726Z 0518/0618 01008KT P6SM FEW060 SCT250 FM060100 VRB04KT P6SM SCT250 FM061700 12008KT P6SM SCT250

Dec-5@
18:00 UTC

Dec-5 @ 18:00 UTC

Dec-6@
01:00 UTC

Dec-6 @ 01:00 UTC

KFXE 051726Z 0518/0618 01008KT P6SM FEW060 SCT250
Wind
  • 010° at 8 KTS
Cloud Levels
  • Few at 6,000' AGL
  • Scattered at 25,000' AGL

Dec-6@
01:00 UTC

Dec-6 @ 01:00 UTC

Dec-6@
17:00 UTC

Dec-6 @ 17:00 UTC

FM060100 VRB04KT P6SM SCT250

From

From Standard forecast or significant change

Wind
  • Variable at 4 KTS
Cloud Levels
  • Scattered at 25,000' AGL

Dec-6@
17:00 UTC

Dec-6 @ 17:00 UTC

Dec-6@
18:00 UTC

Dec-6 @ 18:00 UTC

FM061700 12008KT P6SM SCT250

From

From Standard forecast or significant change

Wind
  • 120° at 8 KTS
Cloud Levels
  • Scattered at 25,000' AGL